createdAt,value
2018-12-06T00:00:31.200Z,41.70
2018-12-06T00:01:04.991Z,41.80
2018-12-06T00:01:38.355Z,45.25
2018-12-06T00:02:11.725Z,42.20
2018-12-06T00:02:45.095Z,41.10
2018-12-06T00:03:18.428Z,40.12
2018-12-06T00:04:01.507Z,46.77
2018-12-06T00:04:34.893Z,42.70
2018-12-06T00:05:08.447Z,45.38
2018-12-06T00:05:41.833Z,45.03
2018-12-06T00:06:15.179Z,40.40
2018-12-06T00:06:48.563Z,47.13
2018-12-06T00:07:22.050Z,41.98
2018-12-06T00:08:15.411Z,43.17
2018-12-06T00:08:48.787Z,43.50
2018-12-06T00:09:22.195Z,45.78
2018-12-06T00:09:55.574Z,43.15
2018-12-06T00:10:28.916Z,42.65
2018-12-06T00:11:02.311Z,47.05
2018-12-06T00:11:35.689Z,42.75
2018-12-06T00:12:09.202Z,43.10
2018-12-06T00:12:42.607Z,48.58
2018-12-06T00:13:23.934Z,43.65
2018-12-06T00:13:57.370Z,46.10
2018-12-06T00:14:30.825Z,44.53
2018-12-06T00:15:30.007Z,44.27
2018-12-06T00:16:03.371Z,46.02
2018-12-06T00:16:36.720Z,44.13
2018-12-06T00:17:10.078Z,48.87
2018-12-06T00:17:43.430Z,47.08
2018-12-06T00:18:16.791Z,47.48
2018-12-06T00:19:10.916Z,43.95
2018-12-06T00:19:44.285Z,43.75
2018-12-06T00:20:17.651Z,42.45
2018-12-06T00:20:50.991Z,46.18
2018-12-06T00:21:24.427Z,45.40
2018-12-06T00:21:57.729Z,45.60
2018-12-06T00:22:31.095Z,46.20
2018-12-06T00:23:04.695Z,51.35
2018-12-06T00:23:38.080Z,48.13
2018-12-06T00:24:11.467Z,48.63
2018-12-06T00:24:44.807Z,43.35
2018-12-06T00:25:18.347Z,42.88
2018-12-06T00:25:51.709Z,44.05
2018-12-06T00:26:25.073Z,42.55
2018-12-06T00:26:58.535Z,44.03
2018-12-06T00:27:31.919Z,45.15
2018-12-06T00:28:05.367Z,46.68
2018-12-06T00:28:38.692Z,44.63
2018-12-06T00:29:12.091Z,41.35
2018-12-06T00:30:55.515Z,46.63
2018-12-06T00:31:28.863Z,46.25
2018-12-06T00:32:02.192Z,45.05
2018-12-06T00:32:35.629Z,46.05
2018-12-06T00:33:09.272Z,45.50
2018-12-06T00:33:42.653Z,46.88
2018-12-06T00:34:16.022Z,48.63
2018-12-06T00:34:49.360Z,50.38
2018-12-06T00:35:22.706Z,44.42
2018-12-06T00:35:56.061Z,48.58
2018-12-06T00:36:29.411Z,44.88
2018-12-06T00:37:02.773Z,47.45
2018-12-06T00:37:36.209Z,49.63
2018-12-06T00:38:09.669Z,46.92
2018-12-06T00:38:43.010Z,47.73
2018-12-06T00:39:16.393Z,46.77
2018-12-06T00:39:49.731Z,48.58
2018-12-06T00:40:23.097Z,47.90
2018-12-06T00:40:56.469Z,47.75
2018-12-06T00:41:30.549Z,45.80
2018-12-06T00:42:03.989Z,49.40
2018-12-06T00:42:37.356Z,43.68
2018-12-06T00:43:10.741Z,44.35
2018-12-06T00:43:44.161Z,49.90
2018-12-06T00:44:17.523Z,45.30
2018-12-06T00:45:00.587Z,49.38
2018-12-06T00:45:33.930Z,49.10
2018-12-06T00:46:07.287Z,51.08
2018-12-06T00:46:40.693Z,45.98
2018-12-06T00:47:14.083Z,53.92
2018-12-06T00:47:47.465Z,47.65
2018-12-06T00:48:20.833Z,48.15
2018-12-06T00:48:54.217Z,51.00
2018-12-06T00:49:27.539Z,51.28
2018-12-06T00:50:00.894Z,49.90
2018-12-06T00:50:34.323Z,49.42
2018-12-06T00:51:07.760Z,49.75
2018-12-06T00:51:41.123Z,51.35
2018-12-06T00:52:14.439Z,47.30
2018-12-06T00:52:47.814Z,50.43
2018-12-06T00:53:21.176Z,49.20
2018-12-06T00:53:54.514Z,53.38
2018-12-06T00:54:27.864Z,51.73
2018-12-06T00:55:01.238Z,46.10
2018-12-06T00:55:34.612Z,49.08
2018-12-06T00:56:07.951Z,46.70
2018-12-06T00:56:41.316Z,47.13
2018-12-06T00:57:16.189Z,50.43
2018-12-06T00:57:49.591Z,49.25
2018-12-06T00:58:26.180Z,45.73
2018-12-06T00:58:59.520Z,45.48
2018-12-06T00:59:32.851Z,47.40
2018-12-06T01:00:06.903Z,49.23
2018-12-06T01:00:40.403Z,47.08
2018-12-06T01:01:13.897Z,47.30
2018-12-06T01:01:47.374Z,47.08
2018-12-06T01:02:20.687Z,49.73
2018-12-06T01:02:54.083Z,45.83
2018-12-06T01:03:28.559Z,45.92
2018-12-06T01:04:01.941Z,47.03
2018-12-06T01:04:35.288Z,46.75
2018-12-06T01:05:08.874Z,47.15
2018-12-06T01:05:42.314Z,46.05
2018-12-06T01:06:15.795Z,47.08
2018-12-06T01:06:49.125Z,42.30
2018-12-06T01:07:22.427Z,43.30
2018-12-06T01:07:55.777Z,45.65
2018-12-06T01:08:29.236Z,47.73
2018-12-06T01:09:03.312Z,49.58
2018-12-06T01:09:37.940Z,48.60
2018-12-06T01:10:11.302Z,51.40
2018-12-06T01:10:44.657Z,48.70
2018-12-06T01:11:18.090Z,44.35
2018-12-06T01:11:52.135Z,45.20
2018-12-06T01:12:25.656Z,44.63
2018-12-06T01:12:58.972Z,45.78
2018-12-06T01:13:32.407Z,45.67
2018-12-06T01:14:05.749Z,46.35
2018-12-06T01:14:39.951Z,46.63
2018-12-06T01:15:13.354Z,41.90
2018-12-06T01:15:46.725Z,44.90
2018-12-06T01:16:20.097Z,41.90
2018-12-06T01:16:53.429Z,44.93
2018-12-06T01:17:26.735Z,49.95
2018-12-06T01:18:00.091Z,45.98
2018-12-06T01:18:33.489Z,43.73
2018-12-06T01:19:06.857Z,45.92
2018-12-06T01:19:40.246Z,47.43
2018-12-06T01:20:13.821Z,47.70
2018-12-06T01:20:47.245Z,43.48
2018-12-06T01:21:20.576Z,44.75
2018-12-06T01:21:54.045Z,45.48
2018-12-06T01:22:27.387Z,45.03
2018-12-06T01:23:00.843Z,45.65
2018-12-06T01:23:34.172Z,48.15
2018-12-06T01:24:07.537Z,45.35
2018-12-06T01:24:40.887Z,47.38
2018-12-06T01:25:14.375Z,47.17
2018-12-06T01:25:48.742Z,49.50
2018-12-06T01:26:22.139Z,44.58
2018-12-06T01:26:55.500Z,48.95
2018-12-06T01:27:28.925Z,45.08
2018-12-06T01:28:02.329Z,43.78
2018-12-06T01:28:35.716Z,44.00
2018-12-06T01:29:09.029Z,44.85
2018-12-06T01:29:42.509Z,44.65
2018-12-06T01:30:15.940Z,42.48
2018-12-06T01:30:49.311Z,46.15
2018-12-06T01:31:22.841Z,47.10
2018-12-06T01:31:56.219Z,46.37
2018-12-06T01:32:29.557Z,43.28
2018-12-06T01:33:02.952Z,46.08
2018-12-06T01:33:36.307Z,46.77
2018-12-06T01:34:09.729Z,46.33
2018-12-06T01:34:43.071Z,47.93
2018-12-06T01:35:16.453Z,45.90
2018-12-06T01:35:49.774Z,44.70
2018-12-06T01:36:23.111Z,46.63
2018-12-06T01:36:56.497Z,49.05
2018-12-06T01:37:29.820Z,52.17
2018-12-06T01:38:03.179Z,42.30
2018-12-06T01:38:36.546Z,44.53
2018-12-06T01:39:10.013Z,46.48
2018-12-06T01:39:43.351Z,45.80
2018-12-06T01:40:16.803Z,45.00
2018-12-06T01:40:50.171Z,45.75
2018-12-06T01:41:23.548Z,46.48
2018-12-06T01:41:56.885Z,44.98
2018-12-06T01:42:30.233Z,48.78
2018-12-06T01:43:03.607Z,46.15
2018-12-06T01:43:36.964Z,41.53
2018-12-06T01:44:10.317Z,47.98
2018-12-06T01:44:43.650Z,48.52
2018-12-06T01:45:17.174Z,45.33
2018-12-06T01:45:50.535Z,43.92
2018-12-06T01:46:23.895Z,43.52
2018-12-06T01:46:57.249Z,45.88
2018-12-06T01:47:30.629Z,47.27
2018-12-06T01:48:04.123Z,47.17
2018-12-06T01:48:37.649Z,49.10
2018-12-06T01:49:11.063Z,48.63
2018-12-06T01:49:44.461Z,42.70
2018-12-06T01:50:17.807Z,44.73
2018-12-06T01:50:51.237Z,47.48
2018-12-06T01:51:24.577Z,48.13
2018-12-06T01:51:57.952Z,42.73
2018-12-06T01:52:31.287Z,48.68
2018-12-06T01:53:04.645Z,46.77
2018-12-06T01:53:37.983Z,47.10
2018-12-06T01:54:11.329Z,45.75
2018-12-06T01:54:44.691Z,47.30
2018-12-06T01:55:18.026Z,47.40
2018-12-06T01:55:51.448Z,45.10
2018-12-06T01:56:24.807Z,47.78
2018-12-06T01:56:58.199Z,50.90
2018-12-06T01:57:31.555Z,47.03
2018-12-06T01:58:04.924Z,48.30
2018-12-06T01:58:38.396Z,44.27
2018-12-06T01:59:11.897Z,45.65
2018-12-06T01:59:45.374Z,45.30
2018-12-06T02:00:19.079Z,44.08
2018-12-06T02:00:52.475Z,47.70
2018-12-06T02:01:25.832Z,49.15
2018-12-06T02:01:59.831Z,48.50
2018-12-06T02:02:33.201Z,49.08
2018-12-06T02:03:06.563Z,47.10
2018-12-06T02:03:39.903Z,47.05
2018-12-06T02:04:13.257Z,46.80
2018-12-06T02:04:46.596Z,49.60
2018-12-06T02:05:19.961Z,49.95
2018-12-06T02:05:53.320Z,48.58
2018-12-06T02:06:26.700Z,54.27
2018-12-06T02:07:00.083Z,48.20
2018-12-06T02:07:33.519Z,47.48
2018-12-06T02:08:06.855Z,47.90
2018-12-06T02:08:40.237Z,48.53
2018-12-06T02:09:13.665Z,51.08
2018-12-06T02:09:47.086Z,47.73
2018-12-06T02:10:20.485Z,48.70
2018-12-06T02:10:54.029Z,50.95
2018-12-06T02:11:27.425Z,47.93
2018-12-06T02:12:00.786Z,51.92
2018-12-06T02:12:35.347Z,47.20
2018-12-06T02:13:08.711Z,50.35
2018-12-06T02:13:42.158Z,50.58
2018-12-06T02:14:15.497Z,48.48
2018-12-06T02:14:48.873Z,52.53
2018-12-06T02:15:22.297Z,48.45
2018-12-06T02:15:55.679Z,49.40
2018-12-06T02:16:29.069Z,48.35
2018-12-06T02:17:02.529Z,51.68
2018-12-06T02:17:35.943Z,46.42
2018-12-06T02:18:09.311Z,52.65
2018-12-06T02:18:42.693Z,52.43
2018-12-06T02:19:16.135Z,56.80
2018-12-06T02:19:49.503Z,56.42
2018-12-06T02:20:23.089Z,55.52
2018-12-06T02:20:56.563Z,51.63
2018-12-06T02:21:29.918Z,50.17
2018-12-06T02:22:03.515Z,55.98
2018-12-06T02:22:36.861Z,54.08
2018-12-06T02:23:10.198Z,52.25
2018-12-06T02:23:43.636Z,53.95
2018-12-06T02:24:17.009Z,55.95
2018-12-06T02:24:50.377Z,58.20
2018-12-06T02:25:23.915Z,53.83
2018-12-06T02:25:57.226Z,56.13
2018-12-06T02:26:30.577Z,63.23
2018-12-06T02:27:04.057Z,57.93
2018-12-06T02:27:37.513Z,59.00
2018-12-06T02:28:10.855Z,59.38
2018-12-06T02:28:51.911Z,60.45
2018-12-06T02:29:29.823Z,61.95
2018-12-06T02:30:04.332Z,57.10
2018-12-06T02:30:37.692Z,56.63
2018-12-06T02:31:11.051Z,59.53
2018-12-06T02:31:44.567Z,62.73
2018-12-06T02:32:17.962Z,58.95
2018-12-06T02:32:51.302Z,58.10
2018-12-06T02:33:24.757Z,58.70
2018-12-06T02:33:58.103Z,56.63
2018-12-06T02:34:31.480Z,56.60
2018-12-06T02:35:05.145Z,60.03
2018-12-06T02:35:38.556Z,61.18
2018-12-06T02:36:11.930Z,62.90
2018-12-06T02:36:45.291Z,58.05
2018-12-06T02:37:18.625Z,58.78
2018-12-06T02:37:51.945Z,62.10
2018-12-06T02:38:25.463Z,70.67
2018-12-06T02:38:58.824Z,61.02
2018-12-06T02:39:32.181Z,63.68
2018-12-06T02:40:06.360Z,60.35
2018-12-06T02:40:39.790Z,64.30
2018-12-06T02:41:13.321Z,81.80
2018-12-06T02:41:46.748Z,78.72
2018-12-06T02:42:20.217Z,81.92
2018-12-06T02:42:53.599Z,80.60
2018-12-06T02:43:27.090Z,83.37
2018-12-06T02:44:00.531Z,85.38
2018-12-06T02:44:34.076Z,89.07
2018-12-06T02:45:07.736Z,85.90
2018-12-06T02:45:41.220Z,91.50
2018-12-06T02:46:14.708Z,92.37
2018-12-06T02:46:48.049Z,99.80
2018-12-06T02:47:21.455Z,104.15
2018-12-06T02:47:54.815Z,95.38
2018-12-06T02:48:28.244Z,105.55
2018-12-06T02:49:01.587Z,101.42
2018-12-06T02:49:35.107Z,116.57
2018-12-06T02:50:08.463Z,109.32
2018-12-06T02:50:41.845Z,123.53
2018-12-06T02:51:15.219Z,115.47
2018-12-06T02:51:48.578Z,108.45
2018-12-06T02:52:22.051Z,110.03
2018-12-06T02:52:55.467Z,100.03
2018-12-06T02:53:28.833Z,104.17
2018-12-06T02:54:02.243Z,108.07
2018-12-06T02:54:35.556Z,107.12
2018-12-06T02:55:08.890Z,104.95
2018-12-06T02:55:42.341Z,109.25
2018-12-06T02:56:15.690Z,117.28
2018-12-06T02:56:49.047Z,108.65
2018-12-06T02:57:22.432Z,107.20
2018-12-06T02:57:57.101Z,107.03
2018-12-06T02:58:30.448Z,96.35
2018-12-06T02:59:03.897Z,87.50
2018-12-06T02:59:37.251Z,99.00
2018-12-06T03:00:10.977Z,83.78
2018-12-06T03:00:44.371Z,101.90
2018-12-06T03:01:17.695Z,90.97
2018-12-06T03:01:51.105Z,88.40
2018-12-06T03:02:24.454Z,97.00
2018-12-06T03:02:57.779Z,96.97
2018-12-06T03:03:31.146Z,82.42
2018-12-06T03:04:05.482Z,90.75
2018-12-06T03:04:38.833Z,85.80
2018-12-06T03:05:12.241Z,89.42
2018-12-06T03:05:45.606Z,90.38
2018-12-06T03:06:19.091Z,83.92
2018-12-06T03:06:52.567Z,84.97
2018-12-06T03:07:26.009Z,86.57
2018-12-06T03:07:59.369Z,84.72
2018-12-06T03:08:32.709Z,84.13
2018-12-06T03:09:06.355Z,75.52
2018-12-06T03:09:42.234Z,80.72
2018-12-06T03:10:15.597Z,85.05
2018-12-06T03:10:49.145Z,79.55
2018-12-06T03:11:22.491Z,88.17
2018-12-06T03:11:55.890Z,78.25
2018-12-06T03:12:29.214Z,78.62
2018-12-06T03:13:02.638Z,83.42
2018-12-06T03:13:36.004Z,82.42
2018-12-06T03:14:10.716Z,86.67
2018-12-06T03:14:44.039Z,80.20
2018-12-06T03:15:19.433Z,76.40
2018-12-06T03:15:54.966Z,76.07
2018-12-06T03:16:28.319Z,86.50
2018-12-06T03:17:01.702Z,85.40
2018-12-06T03:17:35.089Z,87.82
2018-12-06T03:18:08.501Z,75.35
2018-12-06T03:18:41.859Z,80.42
2018-12-06T03:19:15.232Z,82.80
2018-12-06T03:19:48.591Z,76.97
2018-12-06T03:20:21.926Z,77.85
2018-12-06T03:20:55.260Z,93.65
2018-12-06T03:21:28.709Z,81.47
2018-12-06T03:22:02.395Z,94.55
2018-12-06T03:22:36.815Z,81.25
2018-12-06T03:23:10.182Z,73.15
2018-12-06T03:23:43.532Z,76.00
2018-12-06T03:24:16.905Z,79.65
2018-12-06T03:24:50.353Z,74.12
2018-12-06T03:25:23.717Z,78.90
2018-12-06T03:25:57.086Z,76.95
2018-12-06T03:26:30.430Z,79.65
2018-12-06T03:27:03.806Z,65.78
2018-12-06T03:27:37.172Z,76.62
2018-12-06T03:28:10.743Z,82.25
2018-12-06T03:28:44.090Z,72.95
2018-12-06T03:29:17.446Z,71.00
2018-12-06T03:29:50.783Z,70.47
2018-12-06T03:30:24.155Z,73.15
2018-12-06T03:30:57.597Z,70.52
2018-12-06T03:31:30.965Z,74.17
2018-12-06T03:32:04.442Z,68.10
2018-12-06T03:32:37.843Z,72.20
2018-12-06T03:33:11.191Z,60.80
2018-12-06T03:33:44.603Z,57.55
2018-12-06T03:34:18.016Z,64.60
2018-12-06T03:34:51.358Z,66.20
2018-12-06T03:35:24.706Z,59.63
2018-12-06T03:35:58.024Z,66.17
2018-12-06T03:36:31.391Z,59.93
2018-12-06T03:37:04.872Z,57.40
2018-12-06T03:37:39.428Z,54.13
2018-12-06T03:38:12.762Z,65.42
2018-12-06T03:38:46.128Z,59.42
2018-12-06T03:39:19.530Z,55.17
2018-12-06T03:39:52.890Z,57.93
2018-12-06T03:40:26.331Z,52.13
2018-12-06T03:40:59.769Z,57.85
2018-12-06T03:41:33.152Z,62.20
2018-12-06T03:42:06.664Z,58.10
2018-12-06T03:42:40.164Z,60.28
2018-12-06T03:43:13.530Z,58.13
2018-12-06T03:43:46.931Z,57.30
2018-12-06T03:44:20.340Z,60.15
2018-12-06T03:44:53.698Z,55.90
2018-12-06T03:45:27.067Z,56.25
2018-12-06T03:46:00.409Z,60.12
2018-12-06T03:46:33.905Z,60.03
2018-12-06T03:47:07.292Z,58.73
2018-12-06T03:47:40.633Z,60.60
2018-12-06T03:48:14.108Z,57.05
2018-12-06T03:48:47.444Z,62.23
2018-12-06T03:49:20.863Z,59.65
2018-12-06T03:49:54.304Z,56.73
2018-12-06T03:50:27.634Z,58.00
2018-12-06T03:51:01.001Z,60.85
2018-12-06T03:51:34.358Z,57.70
2018-12-06T03:52:07.690Z,56.13
2018-12-06T03:52:41.075Z,60.88
2018-12-06T03:53:14.419Z,58.78
2018-12-06T03:53:47.762Z,56.58
2018-12-06T03:54:21.112Z,61.33
2018-12-06T03:54:54.495Z,62.93
2018-12-06T03:55:27.858Z,61.08
2018-12-06T03:56:01.204Z,65.22
2018-12-06T03:56:34.582Z,65.32
2018-12-06T03:57:08.704Z,62.35
2018-12-06T03:57:42.069Z,63.60
2018-12-06T03:58:15.431Z,64.45
2018-12-06T03:58:48.789Z,62.25
2018-12-06T03:59:43.919Z,68.50
2018-12-06T04:00:17.258Z,63.42
2018-12-06T04:00:50.663Z,69.82
2018-12-06T04:01:24.035Z,69.55
2018-12-06T04:01:57.434Z,62.70
2018-12-06T04:02:30.857Z,68.07
2018-12-06T04:03:04.310Z,65.57
2018-12-06T04:03:37.676Z,72.72
2018-12-06T04:04:11.067Z,69.00
2018-12-06T04:04:44.425Z,67.80
2018-12-06T04:05:17.768Z,70.47
2018-12-06T04:05:51.127Z,66.77
2018-12-06T04:06:24.447Z,74.32
2018-12-06T04:06:57.911Z,64.42
2018-12-06T04:07:31.264Z,75.97
2018-12-06T04:08:04.725Z,76.53
2018-12-06T04:08:40.134Z,71.45
2018-12-06T04:09:13.601Z,69.32
2018-12-06T04:09:46.887Z,65.62
2018-12-06T04:10:20.217Z,70.40
2018-12-06T04:10:53.591Z,68.27
2018-12-06T04:11:26.913Z,76.07
2018-12-06T04:12:00.267Z,70.67
2018-12-06T04:12:33.585Z,78.78
2018-12-06T04:13:06.952Z,77.62
2018-12-06T04:13:40.311Z,86.50
2018-12-06T04:14:13.702Z,77.10
2018-12-06T04:14:47.039Z,78.90
2018-12-06T04:15:20.390Z,70.32
2018-12-06T04:15:53.847Z,73.87
2018-12-06T04:16:27.224Z,69.62
2018-12-06T04:17:00.682Z,72.32
2018-12-06T04:17:34.004Z,89.17
2018-12-06T04:18:07.376Z,74.60
2018-12-06T04:18:40.717Z,77.05
2018-12-06T04:19:14.097Z,72.40
2018-12-06T04:19:47.452Z,85.65
2018-12-06T04:20:20.818Z,70.12
2018-12-06T04:20:54.186Z,71.45
2018-12-06T04:21:27.572Z,75.45
2018-12-06T04:22:00.966Z,69.85
2018-12-06T04:22:34.285Z,68.78
2018-12-06T04:23:07.621Z,81.00
2018-12-06T04:23:41.005Z,82.92
2018-12-06T04:24:14.358Z,80.92
2018-12-06T04:24:47.716Z,71.40
2018-12-06T04:25:21.038Z,72.97
2018-12-06T04:25:54.398Z,82.65
2018-12-06T04:26:27.805Z,89.52
2018-12-06T04:27:01.146Z,87.15
2018-12-06T04:27:34.502Z,77.47
2018-12-06T04:28:07.827Z,81.15
2018-12-06T04:28:41.271Z,85.25
2018-12-06T04:29:14.683Z,80.62
2018-12-06T04:29:48.034Z,86.08
2018-12-06T04:30:21.390Z,72.20
2018-12-06T04:30:54.728Z,80.47
2018-12-06T04:31:30.138Z,85.72
2018-12-06T04:32:05.294Z,86.92
2018-12-06T04:32:38.701Z,83.92
2018-12-06T04:33:12.082Z,70.32
2018-12-06T04:33:45.415Z,68.92
2018-12-06T04:34:18.774Z,65.03
2018-12-06T04:34:52.085Z,69.80
2018-12-06T04:35:25.416Z,72.92
2018-12-06T04:35:58.890Z,71.35
2018-12-06T04:36:32.264Z,77.67
2018-12-06T04:37:05.620Z,67.90
2018-12-06T04:37:39.095Z,74.87
2018-12-06T04:38:12.463Z,68.42
2018-12-06T04:38:45.821Z,72.75
2018-12-06T04:39:19.221Z,73.60
2018-12-06T04:39:52.576Z,72.45
2018-12-06T04:40:25.906Z,70.60
2018-12-06T04:40:59.355Z,73.85
2018-12-06T04:41:32.675Z,73.60
2018-12-06T04:42:05.990Z,72.78
2018-12-06T04:42:39.353Z,71.87
2018-12-06T04:43:12.837Z,71.72
2018-12-06T04:43:46.211Z,72.60
2018-12-06T04:44:19.614Z,77.40
2018-12-06T04:44:53.056Z,77.17
2018-12-06T04:45:26.510Z,91.22
2018-12-06T04:45:59.904Z,67.45
2018-12-06T04:46:33.299Z,71.20
2018-12-06T04:47:06.696Z,76.10
2018-12-06T04:47:40.596Z,64.32
2018-12-06T04:48:21.712Z,69.37
2018-12-06T04:48:49.374Z,70.67
2018-12-06T04:49:22.772Z,69.35
2018-12-06T04:49:56.248Z,58.55
2018-12-06T04:50:29.605Z,70.55
2018-12-06T04:51:03.064Z,69.92
2018-12-06T04:51:36.402Z,64.67
2018-12-06T04:52:09.718Z,67.67
2018-12-06T04:52:43.085Z,60.83
2018-12-06T04:53:16.454Z,67.85
2018-12-06T04:53:49.875Z,70.80
2018-12-06T04:54:23.274Z,69.55
2018-12-06T04:54:56.658Z,61.25
2018-12-06T04:55:29.980Z,65.20
2018-12-06T04:56:03.353Z,72.12
2018-12-06T04:56:36.683Z,65.28
2018-12-06T04:57:10.041Z,68.72
2018-12-06T04:57:43.407Z,67.32
2018-12-06T04:58:16.791Z,64.55
2018-12-06T04:58:50.173Z,57.80
2018-12-06T04:59:23.561Z,68.62
2018-12-06T04:59:56.891Z,70.35
2018-12-06T05:00:30.237Z,68.87
2018-12-06T05:01:03.587Z,65.00
2018-12-06T05:01:37.034Z,64.27
2018-12-06T05:02:10.408Z,65.90
2018-12-06T05:02:43.780Z,62.75
2018-12-06T05:03:17.153Z,59.10
2018-12-06T05:03:51.631Z,61.80
2018-12-06T05:04:24.998Z,65.62
2018-12-06T05:04:58.363Z,74.07
2018-12-06T05:05:31.735Z,55.90
2018-12-06T05:06:05.188Z,59.93
2018-12-06T05:06:38.543Z,62.40
2018-12-06T05:07:11.871Z,57.75
2018-12-06T05:07:45.211Z,63.30
2018-12-06T05:08:18.557Z,54.48
2018-12-06T05:08:51.947Z,64.47
2018-12-06T05:09:25.400Z,62.10
2018-12-06T05:09:58.835Z,56.05
2018-12-06T05:10:32.175Z,53.98
2018-12-06T05:11:05.543Z,55.15
2018-12-06T05:11:38.883Z,65.45
2018-12-06T05:12:12.298Z,53.63
2018-12-06T05:12:45.631Z,56.20
2018-12-06T05:13:18.997Z,72.12
2018-12-06T05:13:52.379Z,59.73
2018-12-06T05:14:25.792Z,64.10
2018-12-06T05:14:59.215Z,56.35
2018-12-06T05:15:32.538Z,59.93
2018-12-06T05:16:05.894Z,74.62
2018-12-06T05:16:39.219Z,72.17
2018-12-06T05:17:12.579Z,59.25
2018-12-06T05:17:45.927Z,60.92
2018-12-06T05:18:19.267Z,67.30
2018-12-06T05:18:52.649Z,63.55
2018-12-06T05:19:25.981Z,67.00
2018-12-06T05:19:59.491Z,51.73
2018-12-06T05:20:32.857Z,55.80
2018-12-06T05:21:06.201Z,68.50
2018-12-06T05:21:39.539Z,57.90
2018-12-06T05:22:12.907Z,68.92
2018-12-06T05:22:46.273Z,70.60
2018-12-06T05:23:19.616Z,58.92
2018-12-06T05:23:53.008Z,59.98
2018-12-06T05:24:26.363Z,53.92
2018-12-06T05:24:59.744Z,59.15
2018-12-06T05:25:33.095Z,66.15
2018-12-06T05:26:06.446Z,68.50
2018-12-06T05:26:39.795Z,57.17
2018-12-06T05:27:13.118Z,62.25
2018-12-06T05:27:46.472Z,58.85
2018-12-06T05:28:20.903Z,60.63
2018-12-06T05:28:54.251Z,57.65
2018-12-06T05:29:27.594Z,62.65
2018-12-06T05:30:00.941Z,57.20
2018-12-06T05:30:34.435Z,66.40
2018-12-06T05:31:07.769Z,52.00
2018-12-06T05:31:41.179Z,53.98
2018-12-06T05:32:14.599Z,59.45
2018-12-06T05:32:47.951Z,67.80
2018-12-06T05:33:21.321Z,64.07
2018-12-06T05:33:54.628Z,54.18
2018-12-06T05:34:27.983Z,55.03
2018-12-06T05:35:01.350Z,59.50
2018-12-06T05:35:34.694Z,60.43
2018-12-06T05:36:08.055Z,57.85
2018-12-06T05:36:41.411Z,61.23
2018-12-06T05:37:14.861Z,57.85
2018-12-06T05:37:48.203Z,57.60
2018-12-06T05:38:21.588Z,58.08
2018-12-06T05:38:54.961Z,60.33
2018-12-06T05:39:29.382Z,56.77
2018-12-06T05:40:03.237Z,58.73
2018-12-06T05:40:36.603Z,57.53
2018-12-06T05:41:09.981Z,62.75
2018-12-06T05:41:43.406Z,55.58
2018-12-06T05:42:16.735Z,59.30
2018-12-06T05:42:50.069Z,52.95
2018-12-06T05:43:23.415Z,55.60
2018-12-06T05:43:57.938Z,65.35
2018-12-06T05:44:31.286Z,54.80
2018-12-06T05:45:04.982Z,54.85
2018-12-06T05:45:38.455Z,62.30
2018-12-06T05:46:11.814Z,57.17
2018-12-06T05:46:45.244Z,56.20
2018-12-06T05:47:18.607Z,52.60
2018-12-06T05:47:52.004Z,62.75
2018-12-06T05:48:25.406Z,57.55
2018-12-06T05:48:58.753Z,56.68
2018-12-06T05:49:32.096Z,51.85
2018-12-06T05:50:06.856Z,61.00
2018-12-06T05:50:40.190Z,66.05
2018-12-06T05:51:14.346Z,52.38
2018-12-06T05:51:47.911Z,60.10
2018-12-06T05:52:21.205Z,53.50
2018-12-06T05:52:54.524Z,52.60
2018-12-06T05:53:28.002Z,59.98
2018-12-06T05:54:01.343Z,57.13
2018-12-06T05:54:34.758Z,51.10
2018-12-06T05:55:08.179Z,56.30
2018-12-06T05:55:41.539Z,54.85
2018-12-06T05:56:14.904Z,53.48
2018-12-06T05:56:48.345Z,59.95
2018-12-06T05:57:21.688Z,51.85
2018-12-06T05:57:55.014Z,51.28
2018-12-06T05:58:28.481Z,61.65
2018-12-06T05:59:02.983Z,48.90
2018-12-06T05:59:36.361Z,55.08
2018-12-06T06:00:10.016Z,58.52
2018-12-06T06:00:43.409Z,50.15
2018-12-06T06:01:16.844Z,55.67
2018-12-06T06:01:50.289Z,57.45
2018-12-06T06:02:23.660Z,51.63
2018-12-06T06:02:57.041Z,48.52
2018-12-06T06:03:30.759Z,54.13
2018-12-06T06:04:04.253Z,52.73
2018-12-06T06:04:37.698Z,53.83
2018-12-06T06:05:11.158Z,58.05
2018-12-06T06:05:44.483Z,57.03
2018-12-06T06:06:17.827Z,48.10
2018-12-06T06:06:51.189Z,58.13
2018-12-06T06:07:24.531Z,48.33
2018-12-06T06:07:57.874Z,49.77
2018-12-06T06:08:31.217Z,57.43
2018-12-06T06:09:06.742Z,46.92
2018-12-06T06:09:40.083Z,55.90
2018-12-06T06:10:13.430Z,54.80
2018-12-06T06:10:46.770Z,52.80
2018-12-06T06:11:20.237Z,50.85
2018-12-06T06:11:53.558Z,54.42
2018-12-06T06:12:26.914Z,55.85
2018-12-06T06:13:00.312Z,50.40
2018-12-06T06:13:33.711Z,67.27
2018-12-06T06:14:07.138Z,54.23
2018-12-06T06:14:40.573Z,54.48
2018-12-06T06:15:14.046Z,50.70
2018-12-06T06:15:47.434Z,52.98
2018-12-06T06:16:20.806Z,56.40
2018-12-06T06:16:54.170Z,53.15
2018-12-06T06:17:27.526Z,63.52
2018-12-06T06:18:00.856Z,57.80
2018-12-06T06:18:34.271Z,55.92
2018-12-06T06:19:07.742Z,51.73
2018-12-06T06:19:41.062Z,52.30
2018-12-06T06:20:14.460Z,47.23
2018-12-06T06:20:47.810Z,56.95
2018-12-06T06:21:21.197Z,55.30
2018-12-06T06:21:54.562Z,48.25
2018-12-06T06:22:27.911Z,56.77
2018-12-06T06:23:01.393Z,54.70
2018-12-06T06:23:34.749Z,53.10
2018-12-06T06:24:08.155Z,50.65
2018-12-06T06:24:41.476Z,59.38
2018-12-06T06:25:14.801Z,51.50
2018-12-06T06:25:48.163Z,56.48
2018-12-06T06:26:21.564Z,52.73
2018-12-06T06:26:54.947Z,57.10
2018-12-06T06:27:28.294Z,58.92
2018-12-06T06:28:01.671Z,58.83
2018-12-06T06:28:35.084Z,59.35
2018-12-06T06:29:08.337Z,59.85
2018-12-06T06:29:41.685Z,59.65
2018-12-06T06:30:16.170Z,57.58
2018-12-06T06:30:49.636Z,57.75
2018-12-06T06:31:22.987Z,58.98
2018-12-06T06:31:56.360Z,58.75
2018-12-06T06:32:29.776Z,69.97
2018-12-06T06:33:03.181Z,53.75
2018-12-06T06:33:36.546Z,58.73
2018-12-06T06:34:09.905Z,68.60
2018-12-06T06:34:43.454Z,62.88
2018-12-06T06:35:16.799Z,62.08
2018-12-06T06:35:50.139Z,57.90
2018-12-06T06:36:23.447Z,57.62
2018-12-06T06:36:56.816Z,55.12
2018-12-06T06:37:30.417Z,54.27
2018-12-06T06:38:03.735Z,71.20
2018-12-06T06:38:37.118Z,56.02
2018-12-06T06:39:10.451Z,52.33
2018-12-06T06:39:43.805Z,54.70
2018-12-06T06:40:17.240Z,54.13
2018-12-06T06:40:50.622Z,56.80
2018-12-06T06:41:23.964Z,62.93
2018-12-06T06:41:57.291Z,55.80
2018-12-06T06:42:30.649Z,54.45
2018-12-06T06:43:04.023Z,54.23
2018-12-06T06:43:37.378Z,59.95
2018-12-06T06:44:10.706Z,60.90
2018-12-06T06:44:44.082Z,58.92
2018-12-06T06:45:17.999Z,56.00
2018-12-06T06:45:51.415Z,57.95
2018-12-06T06:46:24.796Z,59.47
2018-12-06T06:46:58.126Z,57.75
2018-12-06T06:47:31.471Z,63.90
2018-12-06T06:48:04.856Z,52.90
2018-12-06T06:48:38.223Z,55.45
2018-12-06T06:49:13.985Z,55.03
2018-12-06T06:49:46.993Z,56.28
2018-12-06T06:50:20.384Z,59.48
2018-12-06T06:50:53.799Z,56.60
2018-12-06T06:51:27.174Z,54.95
2018-12-06T06:52:00.514Z,56.65
2018-12-06T06:52:33.850Z,59.50
2018-12-06T06:53:07.203Z,60.52
2018-12-06T06:53:40.575Z,61.73
2018-12-06T06:54:13.993Z,58.33
2018-12-06T06:54:47.356Z,58.98
2018-12-06T06:55:20.713Z,50.48
2018-12-06T06:55:54.123Z,51.88
2018-12-06T06:56:27.479Z,53.28
2018-12-06T06:57:00.960Z,58.05
2018-12-06T06:57:34.307Z,59.00
2018-12-06T06:58:07.661Z,53.23
2018-12-06T06:58:41.015Z,60.85
2018-12-06T06:59:14.369Z,56.53
2018-12-06T06:59:47.729Z,52.27
2018-12-06T07:00:21.135Z,62.03
2018-12-06T07:00:54.474Z,56.83
2018-12-06T07:01:27.805Z,47.45
2018-12-06T07:02:01.197Z,61.08
2018-12-06T07:02:34.996Z,58.30
2018-12-06T07:03:08.329Z,56.30
2018-12-06T07:03:41.681Z,58.30
2018-12-06T07:04:15.016Z,54.98
2018-12-06T07:04:48.391Z,56.33
2018-12-06T07:05:21.709Z,53.55
2018-12-06T07:05:55.041Z,60.88
2018-12-06T07:06:28.439Z,59.48
2018-12-06T07:07:01.775Z,56.48
2018-12-06T07:07:42.097Z,57.53
2018-12-06T07:08:15.501Z,59.70
2018-12-06T07:08:48.877Z,53.20
2018-12-06T07:09:22.293Z,50.95
2018-12-06T07:09:55.663Z,53.52
2018-12-06T07:10:29.005Z,59.67
2018-12-06T07:11:02.461Z,63.00
2018-12-06T07:11:36.005Z,64.65
2018-12-06T07:12:09.369Z,58.52
2018-12-06T07:12:42.694Z,55.70
2018-12-06T07:13:16.042Z,56.40
2018-12-06T07:13:49.394Z,58.90
2018-12-06T07:14:23.016Z,61.83